createdAt,value
2022-09-01T09:49:36.346Z,99212.31
2022-09-01T09:52:10.721Z,99215.46
2022-09-01T09:55:06.425Z,99213.50
2022-09-01T09:57:43.360Z,99214.73
2022-09-01T10:00:29.275Z,99216.48
2022-09-01T10:03:10.163Z,99214.90
2022-09-01T10:05:51.951Z,99208.63
2022-09-01T10:08:40.800Z,99212.66
2022-09-01T10:11:12.169Z,99211.94
2022-09-01T10:13:39.890Z,99217.79
2022-09-01T10:16:22.054Z,99213.80
2022-09-01T10:18:52.421Z,99212.08
2022-09-01T10:21:30.537Z,99211.11
2022-09-01T10:24:17.741Z,99214.73
2022-09-01T10:26:57.002Z,99218.46
2022-09-01T10:29:47.116Z,99222.33
2022-09-01T10:32:37.605Z,99218.24
2022-09-01T10:35:34.551Z,99219.60
2022-09-01T10:38:14.806Z,99217.92
2022-09-01T10:40:52.409Z,99211.01
2022-09-01T10:43:48.169Z,99209.29
2022-09-01T10:46:26.240Z,99205.10
2022-09-01T10:49:02.211Z,99203.02
2022-09-01T10:51:38.263Z,99201.20
2022-09-01T10:54:07.214Z,99200.96
2022-09-01T10:56:53.490Z,99197.60
2022-09-01T10:59:31.623Z,99193.05
2022-09-01T11:02:23.554Z,99195.75
2022-09-01T11:05:02.086Z,99194.13
2022-09-01T11:08:00.077Z,99187.64
2022-09-01T11:10:52.811Z,99186.30
2022-09-01T11:13:38.800Z,99182.75
2022-09-01T11:16:49.203Z,99187.80
2022-09-01T11:19:45.797Z,99189.73
2022-09-01T11:22:18.096Z,99186.08
2022-09-01T11:25:00.287Z,99182.17
2022-09-01T11:27:50.721Z,99177.48
2022-09-01T11:30:31.064Z,99183.56
2022-09-01T11:33:12.199Z,99186.11
2022-09-01T11:35:45.906Z,99188.89
2022-09-01T11:38:20.518Z,99192.22
2022-09-01T11:40:58.116Z,99193.42
2022-09-01T11:43:31.283Z,99194.17
2022-09-01T11:46:07.548Z,99192.98
2022-09-01T11:48:38.225Z,99191.07
2022-09-01T11:51:06.624Z,99193.33
2022-09-01T11:53:34.678Z,99193.45
2022-09-01T11:56:13.858Z,99188.23
2022-09-01T11:58:43.092Z,99189.15
2022-09-01T12:01:22.308Z,99188.67
2022-09-01T12:03:56.103Z,99185.49
2022-09-01T12:06:32.312Z,99190.83
2022-09-01T12:09:05.347Z,99190.38
2022-09-01T12:11:37.865Z,99189.69
2022-09-01T12:14:12.013Z,99188.05
2022-09-01T12:16:43.880Z,99188.32
2022-09-01T12:19:24.625Z,99188.39
2022-09-01T12:22:19.534Z,99182.93
2022-09-01T12:24:55.898Z,99187.66
2022-09-01T12:27:23.932Z,99183.15
2022-09-01T12:30:00.362Z,99183.55
2022-09-01T12:32:33.630Z,99181.06
2022-09-01T12:35:27.618Z,99178.36
2022-09-01T12:38:26.794Z,99170.17
2022-09-01T12:41:00.013Z,99172.44
2022-09-01T12:43:34.292Z,99172.60
2022-09-01T12:46:09.376Z,99166.84
2022-09-01T12:48:44.759Z,99168.24
2022-09-01T12:51:18.834Z,99164.64
2022-09-01T12:53:58.533Z,99159.73
2022-09-01T12:56:41.419Z,99158.60
2022-09-01T12:59:35.990Z,99155.15
2022-09-01T13:02:36.934Z,99157.87
2022-09-01T13:05:40.971Z,99153.99
2022-09-01T13:08:18.149Z,99151.42
2022-09-01T13:10:52.747Z,99147.05
2022-09-01T13:13:24.330Z,99146.55
2022-09-01T13:15:57.694Z,99151.21
2022-09-01T13:18:29.073Z,99152.96
2022-09-01T13:20:59.357Z,99153.70
2022-09-01T13:23:27.131Z,99155.70
2022-09-01T13:25:55.750Z,99155.19
2022-09-01T13:36:46.512Z,99153.47
2022-09-01T13:39:17.339Z,99155.30
2022-09-01T13:41:50.131Z,99154.86
2022-09-01T13:44:23.229Z,99149.96
2022-09-01T13:49:44.590Z,99154.73
2022-09-01T13:52:27.652Z,99151.42
2022-09-01T13:54:55.598Z,99156.55
2022-09-01T13:57:24.009Z,99154.31
2022-09-01T13:59:53.424Z,99160.02
2022-09-01T14:02:21.597Z,99157.31
2022-09-01T14:04:49.649Z,99156.40
2022-09-01T14:07:18.997Z,99156.79
2022-09-01T14:09:46.990Z,99160.23
2022-09-01T14:12:15.592Z,99156.30
2022-09-01T14:17:35.263Z,99162.89
2022-09-01T14:20:12.495Z,99164.30
2022-09-01T14:22:41.213Z,99165.84
2022-09-01T14:25:10.682Z,99162.70
2022-09-01T14:27:39.729Z,99161.89
2022-09-01T14:30:10.157Z,99155.98
2022-09-01T14:32:41.852Z,99158.25
2022-09-01T14:35:09.831Z,99154.66
2022-09-01T14:37:42.498Z,99156.89
2022-09-01T14:40:16.577Z,99157.06
2022-09-01T14:42:49.699Z,99155.23
2022-09-01T14:45:28.774Z,99154.24
2022-09-01T14:48:01.148Z,99154.64
2022-09-01T14:50:35.901Z,99159.11
2022-09-01T14:53:05.165Z,99162.92
2022-09-01T14:55:34.192Z,99163.19
2022-09-01T14:58:06.813Z,99160.85
2022-09-01T15:00:37.642Z,99162.14
2022-09-01T15:03:05.912Z,99160.21
2022-09-01T15:05:40.034Z,99159.81
2022-09-01T15:08:12.976Z,99163.54
2022-09-01T15:10:45.183Z,99162.45
2022-09-01T15:13:13.782Z,99164.03
2022-09-01T15:15:41.725Z,99167.94
2022-09-01T15:18:09.561Z,99167.48
2022-09-01T15:20:45.138Z,99168.64
2022-09-01T15:23:22.434Z,99162.17
2022-09-01T15:25:53.234Z,99168.89
2022-09-01T15:28:22.733Z,99168.56
2022-09-01T15:30:53.456Z,99166.35
2022-09-01T15:33:22.296Z,99170.11
2022-09-01T15:35:50.377Z,99167.85
2022-09-01T15:38:18.553Z,99173.27
2022-09-01T15:40:57.013Z,99174.73
2022-09-01T15:43:31.179Z,99176.39
2022-09-01T15:46:05.550Z,99176.86
2022-09-01T15:48:35.054Z,99173.04
2022-09-01T15:51:21.903Z,99175.08
2022-09-01T15:53:53.329Z,99177.04
2022-09-01T15:56:23.083Z,99173.39
2022-09-01T15:59:01.612Z,99181.75
2022-09-01T16:01:36.312Z,99181.02
2022-09-01T16:04:07.355Z,99182.31
2022-09-01T16:06:42.180Z,99184.53
2022-09-01T16:09:12.585Z,99189.11
2022-09-01T16:11:42.717Z,99185.99
2022-09-01T16:14:12.112Z,99186.69
2022-09-01T16:16:59.712Z,99185.46
2022-09-01T16:19:52.974Z,99186.44
2022-09-01T16:22:28.357Z,99185.05
2022-09-01T16:25:06.217Z,99184.48
2022-09-01T16:27:41.320Z,99185.41
2022-09-01T16:30:16.813Z,99190.76
2022-09-01T16:32:48.552Z,99192.02
2022-09-01T16:35:22.528Z,99192.97
2022-09-01T16:38:35.387Z,99188.54
2022-09-01T16:41:18.921Z,99191.52
2022-09-01T16:44:00.677Z,99194.95
2022-09-01T16:46:38.150Z,99198.55
2022-09-01T16:49:35.558Z,99199.36
2022-09-01T16:52:11.589Z,99202.57
2022-09-01T16:54:59.554Z,99204.57
2022-09-01T16:57:59.039Z,99206.82
2022-09-01T17:00:54.363Z,99206.77
2022-09-01T17:03:42.885Z,99212.92
2022-09-01T17:06:31.988Z,99213.70
2022-09-01T17:09:10.420Z,99218.98
2022-09-01T17:12:05.608Z,99223.13
2022-09-01T17:14:48.449Z,99231.54
2022-09-01T17:17:22.946Z,99233.58
2022-09-01T17:19:55.590Z,99237.29
2022-09-01T17:22:25.877Z,99235.12
2022-09-01T17:25:13.722Z,99241.27
2022-09-01T17:27:58.321Z,99242.66
2022-09-01T17:30:28.158Z,99245.69
2022-09-01T17:33:18.442Z,99250.98
2022-09-01T17:36:15.879Z,99249.66
2022-09-01T17:39:05.274Z,99253.15
2022-09-01T17:41:55.980Z,99255.30
2022-09-01T17:45:02.854Z,99252.67
2022-09-01T17:47:40.941Z,99256.17
2022-09-01T17:50:31.855Z,99260.13
2022-09-01T17:53:11.422Z,99260.63
2022-09-01T17:55:59.963Z,99261.67
2022-09-01T17:58:57.755Z,99264.30
2022-09-01T18:01:33.771Z,99268.81
2022-09-01T18:04:56.119Z,99273.05
2022-09-01T18:07:39.454Z,99276.23
2022-09-01T18:10:14.663Z,99280.19
2022-09-01T18:13:00.721Z,99283.04
2022-09-01T18:15:52.465Z,99286.73
2022-09-01T18:18:35.943Z,99290.33
2022-09-01T18:21:20.613Z,99290.60
2022-09-01T18:24:08.849Z,99287.71
2022-09-01T18:26:41.348Z,99293.02
2022-09-01T18:29:13.912Z,99297.58
2022-09-01T18:32:12.578Z,99299.39
2022-09-01T18:35:01.840Z,99302.83
2022-09-01T18:37:46.624Z,99308.02
2022-09-01T18:40:33.147Z,99309.86
2022-09-01T18:43:26.827Z,99308.79
2022-09-01T18:46:03.994Z,99307.73
2022-09-01T18:49:15.951Z,99308.65
2022-09-01T18:51:59.816Z,99310.58
2022-09-01T18:54:37.225Z,99310.02
2022-09-01T18:57:09.513Z,99310.29
2022-09-01T18:59:55.978Z,99314.94
2022-09-01T19:02:52.886Z,99315.55
2022-09-01T19:05:33.487Z,99316.60
2022-09-01T19:08:24.908Z,99319.34
2022-09-01T19:11:21.885Z,99320.31
2022-09-01T19:14:04.585Z,99322.33
2022-09-01T19:16:58.908Z,99325.69
2022-09-01T19:19:45.579Z,99333.25
2022-09-01T19:22:31.675Z,99332.48
2022-09-01T19:25:27.403Z,99334.71
2022-09-01T19:28:05.179Z,99338.77
2022-09-01T19:30:42.071Z,99340.73
2022-09-01T19:33:14.939Z,99343.11
2022-09-01T19:35:49.265Z,99343.03
2022-09-01T19:38:27.682Z,99348.67
2022-09-01T19:41:13.728Z,99350.52
2022-09-01T19:43:43.502Z,99350.92
2022-09-01T19:46:30.528Z,99351.13
2022-09-01T19:49:18.654Z,99354.52
2022-09-01T19:51:59.042Z,99354.78
2022-09-01T19:54:56.753Z,99355.31
2022-09-01T19:57:39.187Z,99357.38
2022-09-01T20:00:24.358Z,99355.79
2022-09-01T20:03:07.728Z,99358.02
2022-09-01T20:05:41.038Z,99358.88
2022-09-01T20:08:38.518Z,99360.30
2022-09-01T20:11:33.718Z,99363.29
2022-09-01T20:14:41.263Z,99361.41
2022-09-01T20:17:20.011Z,99362.02
2022-09-01T20:19:59.208Z,99361.61
2022-09-01T20:22:57.328Z,99363.83
2022-09-01T20:25:33.516Z,99367.34
2022-09-01T20:28:21.369Z,99369.37
2022-09-01T20:31:01.264Z,99370.16
2022-09-01T20:33:35.201Z,99366.58
2022-09-01T20:36:30.452Z,99370.27
2022-09-01T20:39:32.405Z,99372.88
2022-09-01T20:42:13.915Z,99371.14
2022-09-01T20:44:54.894Z,99372.53
2022-09-01T20:47:29.454Z,99375.00
2022-09-01T20:50:01.935Z,99374.58
2022-09-01T20:53:01.274Z,99375.87
2022-09-01T20:55:29.028Z,99378.98
2022-09-01T20:58:16.141Z,99376.45
2022-09-01T21:01:17.534Z,99378.70
2022-09-01T21:04:06.434Z,99378.29
2022-09-01T21:07:03.079Z,99378.96
2022-09-01T21:09:57.893Z,99374.83
2022-09-01T21:12:44.367Z,99377.42
2022-09-01T21:15:27.679Z,99385.30
2022-09-01T21:18:33.496Z,99386.52
2022-09-01T21:21:17.908Z,99390.06
2022-09-01T21:23:47.661Z,99391.80
2022-09-01T21:26:17.812Z,99393.93
2022-09-01T21:28:51.536Z,99393.27
2022-09-01T21:31:21.351Z,99391.60
2022-09-01T21:33:49.354Z,99398.53
2022-09-01T21:36:20.145Z,99397.77
2022-09-01T21:38:47.862Z,99399.73
2022-09-01T21:41:16.705Z,99397.23
2022-09-01T21:43:48.289Z,99399.90
2022-09-01T21:46:18.837Z,99397.56
2022-09-01T21:48:51.385Z,99398.41
2022-09-01T21:51:19.183Z,99395.33
2022-09-01T21:53:46.965Z,99397.02
2022-09-01T21:56:19.773Z,99394.87
2022-09-01T21:59:00.611Z,99396.00
2022-09-01T22:01:33.692Z,99401.13
2022-09-01T22:04:04.775Z,99402.82
2022-09-01T22:06:35.951Z,99403.72
2022-09-01T22:09:20.623Z,99407.14
2022-09-01T22:11:52.779Z,99402.00
2022-09-01T22:14:23.316Z,99400.86
2022-09-01T22:16:53.773Z,99401.64
2022-09-01T22:19:22.817Z,99404.11
2022-09-01T22:21:54.720Z,99404.77
2022-09-01T22:24:24.667Z,99406.21
2022-09-01T22:26:54.624Z,99405.96
2022-09-01T22:29:22.960Z,99407.63
2022-09-01T22:31:50.726Z,99406.54
2022-09-01T22:34:18.453Z,99409.25
2022-09-01T22:36:50.348Z,99407.61
2022-09-01T22:39:25.129Z,99412.92
2022-09-01T22:41:58.471Z,99411.52
2022-09-01T22:44:27.101Z,99410.44
2022-09-01T22:46:54.997Z,99410.86
2022-09-01T22:49:22.815Z,99409.60
2022-09-01T22:51:52.733Z,99408.19
2022-09-01T22:54:20.595Z,99410.30
2022-09-01T22:56:50.579Z,99408.36
2022-09-01T22:59:19.780Z,99408.01
2022-09-01T23:01:51.476Z,99409.01
2022-09-01T23:04:20.474Z,99408.02
2022-09-01T23:06:52.591Z,99407.91
2022-09-01T23:09:22.540Z,99406.14
2022-09-01T23:11:52.934Z,99403.63
2022-09-01T23:14:22.904Z,99408.56
2022-09-01T23:16:54.233Z,99409.72
2022-09-01T23:19:24.463Z,99409.17
2022-09-01T23:21:55.488Z,99409.62
2022-09-01T23:24:25.653Z,99411.26
2022-09-01T23:26:55.698Z,99415.49
2022-09-01T23:29:27.761Z,99417.33
2022-09-01T23:31:59.739Z,99417.50
2022-09-01T23:34:27.634Z,99417.10
2022-09-01T23:36:57.590Z,99414.88
2022-09-01T23:39:27.820Z,99415.98
2022-09-01T23:41:57.179Z,99416.30
2022-09-01T23:44:26.292Z,99415.96
2022-09-01T23:46:53.973Z,99414.80
2022-09-01T23:49:21.916Z,99415.29
2022-09-01T23:51:54.663Z,99413.11
2022-09-01T23:54:23.519Z,99414.12
2022-09-01T23:56:53.542Z,99409.45
2022-09-01T23:59:24.226Z,99412.27
